sensor_id;sensor_type;location;lat;lon;timestamp;temperature;humidity
2783;DHT22;1399;47.072;15.452;2023-07-30T00:01:33;21.00;88.90
2783;DHT22;1399;47.072;15.452;2023-07-30T00:03:59;21.00;88.90
2783;DHT22;1399;47.072;15.452;2023-07-30T00:06:25;21.00;88.90
2783;DHT22;1399;47.072;15.452;2023-07-30T00:08:50;21.00;88.90
2783;DHT22;1399;47.072;15.452;2023-07-30T00:11:16;21.00;88.90
2783;DHT22;1399;47.072;15.452;2023-07-30T00:13:42;21.00;88.90
2783;DHT22;1399;47.072;15.452;2023-07-30T00:16:08;21.00;88.90
2783;DHT22;1399;47.072;15.452;2023-07-30T00:18:33;20.90;88.90
2783;DHT22;1399;47.072;15.452;2023-07-30T00:20:59;20.90;88.90
2783;DHT22;1399;47.072;15.452;2023-07-30T00:23:25;20.90;88.90
2783;DHT22;1399;47.072;15.452;2023-07-30T00:25:51;20.90;89.00
2783;DHT22;1399;47.072;15.452;2023-07-30T00:28:16;20.90;89.20
2783;DHT22;1399;47.072;15.452;2023-07-30T00:30:43;20.90;89.40
2783;DHT22;1399;47.072;15.452;2023-07-30T00:33:09;20.90;89.50
2783;DHT22;1399;47.072;15.452;2023-07-30T00:35:34;20.90;89.50
2783;DHT22;1399;47.072;15.452;2023-07-30T00:38:00;20.90;89.50
2783;DHT22;1399;47.072;15.452;2023-07-30T00:40:26;20.90;89.40
2783;DHT22;1399;47.072;15.452;2023-07-30T00:42:51;20.90;89.40
2783;DHT22;1399;47.072;15.452;2023-07-30T00:45:17;20.90;89.40
2783;DHT22;1399;47.072;15.452;2023-07-30T00:47:43;20.90;89.40
2783;DHT22;1399;47.072;15.452;2023-07-30T00:50:10;20.90;89.50
2783;DHT22;1399;47.072;15.452;2023-07-30T00:52:39;20.90;89.50
2783;DHT22;1399;47.072;15.452;2023-07-30T00:55:07;20.90;89.60
2783;DHT22;1399;47.072;15.452;2023-07-30T00:57:33;20.90;89.50
2783;DHT22;1399;47.072;15.452;2023-07-30T01:00:00;20.90;89.60
2783;DHT22;1399;47.072;15.452;2023-07-30T01:02:29;20.80;89.50
2783;DHT22;1399;47.072;15.452;2023-07-30T01:04:57;20.80;89.70
2783;DHT22;1399;47.072;15.452;2023-07-30T01:07:25;20.80;89.90
2783;DHT22;1399;47.072;15.452;2023-07-30T01:09:51;20.80;90.00
2783;DHT22;1399;47.072;15.452;2023-07-30T01:12:17;20.80;90.10
2783;DHT22;1399;47.072;15.452;2023-07-30T01:14:45;20.80;90.20
2783;DHT22;1399;47.072;15.452;2023-07-30T01:17:12;20.80;90.20
2783;DHT22;1399;47.072;15.452;2023-07-30T01:19:37;20.80;90.30
2783;DHT22;1399;47.072;15.452;2023-07-30T01:22:03;20.80;90.20
2783;DHT22;1399;47.072;15.452;2023-07-30T01:24:31;20.80;90.30
2783;DHT22;1399;47.072;15.452;2023-07-30T01:27:03;20.80;90.30
2783;DHT22;1399;47.072;15.452;2023-07-30T01:29:48;20.80;90.40
2783;DHT22;1399;47.072;15.452;2023-07-30T01:32:20;20.70;90.40
2783;DHT22;1399;47.072;15.452;2023-07-30T01:34:52;20.70;90.50
2783;DHT22;1399;47.072;15.452;2023-07-30T01:37:19;20.70;90.50
2783;DHT22;1399;47.072;15.452;2023-07-30T01:39:46;20.70;90.60
2783;DHT22;1399;47.072;15.452;2023-07-30T01:42:13;20.70;90.60
2783;DHT22;1399;47.072;15.452;2023-07-30T01:44:38;20.70;90.80
2783;DHT22;1399;47.072;15.452;2023-07-30T01:47:04;20.70;90.80
2783;DHT22;1399;47.072;15.452;2023-07-30T01:49:30;20.70;90.80
2783;DHT22;1399;47.072;15.452;2023-07-30T01:51:56;20.70;90.90
2783;DHT22;1399;47.072;15.452;2023-07-30T01:54:21;20.70;90.90
2783;DHT22;1399;47.072;15.452;2023-07-30T01:56:47;20.70;91.00
2783;DHT22;1399;47.072;15.452;2023-07-30T01:59:13;20.60;91.00
2783;DHT22;1399;47.072;15.452;2023-07-30T02:01:39;20.60;91.10
2783;DHT22;1399;47.072;15.452;2023-07-30T02:04:04;20.60;91.10
2783;DHT22;1399;47.072;15.452;2023-07-30T02:06:30;20.60;91.20
2783;DHT22;1399;47.072;15.452;2023-07-30T02:08:56;20.60;91.20
2783;DHT22;1399;47.072;15.452;2023-07-30T02:11:21;20.60;91.30
2783;DHT22;1399;47.072;15.452;2023-07-30T02:13:47;20.60;91.30
2783;DHT22;1399;47.072;15.452;2023-07-30T02:16:13;20.60;91.30
2783;DHT22;1399;47.072;15.452;2023-07-30T02:18:38;20.60;91.30
2783;DHT22;1399;47.072;15.452;2023-07-30T02:21:04;20.60;91.40
2783;DHT22;1399;47.072;15.452;2023-07-30T02:23:30;20.60;91.40
2783;DHT22;1399;47.072;15.452;2023-07-30T02:25:55;20.50;91.40
2783;DHT22;1399;47.072;15.452;2023-07-30T02:28:21;20.50;91.40
2783;DHT22;1399;47.072;15.452;2023-07-30T02:30:47;20.50;91.40
2783;DHT22;1399;47.072;15.452;2023-07-30T02:33:12;20.50;91.40
2783;DHT22;1399;47.072;15.452;2023-07-30T02:35:38;20.50;91.40
2783;DHT22;1399;47.072;15.452;2023-07-30T02:38:04;20.50;91.40
2783;DHT22;1399;47.072;15.452;2023-07-30T02:40:29;20.50;91.40
2783;DHT22;1399;47.072;15.452;2023-07-30T02:42:56;20.50;91.40
2783;DHT22;1399;47.072;15.452;2023-07-30T02:45:22;20.50;91.80
2783;DHT22;1399;47.072;15.452;2023-07-30T02:47:47;20.50;91.40
2783;DHT22;1399;47.072;15.452;2023-07-30T02:50:13;20.50;91.80
2783;DHT22;1399;47.072;15.452;2023-07-30T02:52:39;20.50;91.40
2783;DHT22;1399;47.072;15.452;2023-07-30T02:55:05;20.50;91.40
2783;DHT22;1399;47.072;15.452;2023-07-30T02:57:30;20.40;91.30
2783;DHT22;1399;47.072;15.452;2023-07-30T02:59:56;20.40;91.30
2783;DHT22;1399;47.072;15.452;2023-07-30T03:02:22;20.40;91.30
2783;DHT22;1399;47.072;15.452;2023-07-30T03:04:48;20.40;91.30
2783;DHT22;1399;47.072;15.452;2023-07-30T03:07:14;20.40;91.30
2783;DHT22;1399;47.072;15.452;2023-07-30T03:09:40;20.40;91.20
2783;DHT22;1399;47.072;15.452;2023-07-30T03:12:06;20.40;91.20
2783;DHT22;1399;47.072;15.452;2023-07-30T03:14:31;20.40;91.20
2783;DHT22;1399;47.072;15.452;2023-07-30T03:16:57;20.40;91.20
2783;DHT22;1399;47.072;15.452;2023-07-30T03:19:23;20.40;91.20
2783;DHT22;1399;47.072;15.452;2023-07-30T03:21:48;20.40;91.20
2783;DHT22;1399;47.072;15.452;2023-07-30T03:24:14;20.40;91.20
2783;DHT22;1399;47.072;15.452;2023-07-30T03:26:40;20.40;91.10
2783;DHT22;1399;47.072;15.452;2023-07-30T03:29:06;20.40;91.10
2783;DHT22;1399;47.072;15.452;2023-07-30T03:31:31;20.40;91.10
2783;DHT22;1399;47.072;15.452;2023-07-30T03:33:57;20.40;91.10
2783;DHT22;1399;47.072;15.452;2023-07-30T03:36:23;20.40;91.10
2783;DHT22;1399;47.072;15.452;2023-07-30T03:38:48;20.40;91.10
2783;DHT22;1399;47.072;15.452;2023-07-30T03:41:14;20.40;91.10
2783;DHT22;1399;47.072;15.452;2023-07-30T03:43:40;20.40;91.10
2783;DHT22;1399;47.072;15.452;2023-07-30T03:46:06;20.40;91.10
2783;DHT22;1399;47.072;15.452;2023-07-30T03:48:31;20.40;91.10
2783;DHT22;1399;47.072;15.452;2023-07-30T03:50:57;20.40;91.10
2783;DHT22;1399;47.072;15.452;2023-07-30T03:53:23;20.40;91.10
2783;DHT22;1399;47.072;15.452;2023-07-30T03:55:48;20.40;91.10
2783;DHT22;1399;47.072;15.452;2023-07-30T03:58:14;20.40;91.00
2783;DHT22;1399;47.072;15.452;2023-07-30T04:00:40;20.40;91.00
2783;DHT22;1399;47.072;15.452;2023-07-30T04:03:06;20.30;90.90
2783;DHT22;1399;47.072;15.452;2023-07-30T04:05:32;20.40;91.00
2783;DHT22;1399;47.072;15.452;2023-07-30T04:07:58;20.40;91.10
2783;DHT22;1399;47.072;15.452;2023-07-30T04:10:24;20.40;91.20
2783;DHT22;1399;47.072;15.452;2023-07-30T04:12:49;20.40;91.20
2783;DHT22;1399;47.072;15.452;2023-07-30T04:15:16;20.40;91.20
2783;DHT22;1399;47.072;15.452;2023-07-30T04:17:42;20.30;91.30
2783;DHT22;1399;47.072;15.452;2023-07-30T04:20:08;20.30;91.30
2783;DHT22;1399;47.072;15.452;2023-07-30T04:22:37;20.30;91.40
2783;DHT22;1399;47.072;15.452;2023-07-30T04:25:04;20.30;91.50
2783;DHT22;1399;47.072;15.452;2023-07-30T04:27:29;20.30;91.60
2783;DHT22;1399;47.072;15.452;2023-07-30T04:29:55;20.30;91.70
2783;DHT22;1399;47.072;15.452;2023-07-30T04:32:21;20.30;91.70
2783;DHT22;1399;47.072;15.452;2023-07-30T04:34:47;20.30;91.70
2783;DHT22;1399;47.072;15.452;2023-07-30T04:37:12;20.30;91.80
2783;DHT22;1399;47.072;15.452;2023-07-30T04:39:38;20.30;91.90
2783;DHT22;1399;47.072;15.452;2023-07-30T04:42:04;20.20;91.80
2783;DHT22;1399;47.072;15.452;2023-07-30T04:44:30;20.20;91.80
2783;DHT22;1399;47.072;15.452;2023-07-30T04:46:55;20.20;91.80
2783;DHT22;1399;47.072;15.452;2023-07-30T04:49:21;20.20;91.80
2783;DHT22;1399;47.072;15.452;2023-07-30T04:51:47;20.20;91.90
2783;DHT22;1399;47.072;15.452;2023-07-30T04:54:13;20.20;91.90
2783;DHT22;1399;47.072;15.452;2023-07-30T04:56:38;20.20;91.90
2783;DHT22;1399;47.072;15.452;2023-07-30T04:59:04;20.20;91.90
2783;DHT22;1399;47.072;15.452;2023-07-30T05:01:29;20.30;92.00
2783;DHT22;1399;47.072;15.452;2023-07-30T05:03:56;20.20;91.90
2783;DHT22;1399;47.072;15.452;2023-07-30T05:06:23;20.20;91.90
2783;DHT22;1399;47.072;15.452;2023-07-30T05:08:48;20.20;91.90
2783;DHT22;1399;47.072;15.452;2023-07-30T05:11:14;20.20;91.90
2783;DHT22;1399;47.072;15.452;2023-07-30T05:13:40;20.20;91.90
2783;DHT22;1399;47.072;15.452;2023-07-30T05:16:06;20.30;92.00
2783;DHT22;1399;47.072;15.452;2023-07-30T05:18:32;20.30;91.90
2783;DHT22;1399;47.072;15.452;2023-07-30T05:20:57;20.20;91.90
2783;DHT22;1399;47.072;15.452;2023-07-30T05:23:23;20.30;91.90
2783;DHT22;1399;47.072;15.452;2023-07-30T05:25:49;20.30;91.90
2783;DHT22;1399;47.072;15.452;2023-07-30T05:28:15;20.30;91.90
2783;DHT22;1399;47.072;15.452;2023-07-30T05:30:40;20.30;91.90
2783;DHT22;1399;47.072;15.452;2023-07-30T05:33:06;20.30;91.90
2783;DHT22;1399;47.072;15.452;2023-07-30T05:35:32;20.30;91.90
2783;DHT22;1399;47.072;15.452;2023-07-30T05:37:57;20.30;91.90
2783;DHT22;1399;47.072;15.452;2023-07-30T05:40:23;20.30;92.20
2783;DHT22;1399;47.072;15.452;2023-07-30T05:42:49;20.30;91.90
2783;DHT22;1399;47.072;15.452;2023-07-30T05:45:15;20.30;91.80
2783;DHT22;1399;47.072;15.452;2023-07-30T05:47:40;20.30;91.80
2783;DHT22;1399;47.072;15.452;2023-07-30T05:50:07;20.30;91.70
2783;DHT22;1399;47.072;15.452;2023-07-30T05:52:33;20.30;91.70
2783;DHT22;1399;47.072;15.452;2023-07-30T05:54:58;20.40;91.70
2783;DHT22;1399;47.072;15.452;2023-07-30T05:57:24;20.30;91.60
2783;DHT22;1399;47.072;15.452;2023-07-30T05:59:50;20.40;91.60
2783;DHT22;1399;47.072;15.452;2023-07-30T06:02:16;20.40;91.60
2783;DHT22;1399;47.072;15.452;2023-07-30T06:04:42;20.40;91.60
2783;DHT22;1399;47.072;15.452;2023-07-30T06:07:07;20.40;91.60
2783;DHT22;1399;47.072;15.452;2023-07-30T06:09:33;20.40;91.50
2783;DHT22;1399;47.072;15.452;2023-07-30T06:11:59;20.40;91.50
2783;DHT22;1399;47.072;15.452;2023-07-30T06:14:25;20.40;91.40
2783;DHT22;1399;47.072;15.452;2023-07-30T06:16:53;20.50;91.40
2783;DHT22;1399;47.072;15.452;2023-07-30T06:19:19;20.50;91.30
2783;DHT22;1399;47.072;15.452;2023-07-30T06:21:45;20.50;91.30
2783;DHT22;1399;47.072;15.452;2023-07-30T06:24:10;20.50;91.20
2783;DHT22;1399;47.072;15.452;2023-07-30T06:26:36;20.50;91.20
2783;DHT22;1399;47.072;15.452;2023-07-30T06:29:02;20.50;91.10
2783;DHT22;1399;47.072;15.452;2023-07-30T06:31:28;20.50;91.00
2783;DHT22;1399;47.072;15.452;2023-07-30T06:33:54;20.50;91.00
2783;DHT22;1399;47.072;15.452;2023-07-30T06:36:19;20.60;91.00
2783;DHT22;1399;47.072;15.452;2023-07-30T06:38:45;20.60;91.00
2783;DHT22;1399;47.072;15.452;2023-07-30T06:41:10;20.50;90.90
2783;DHT22;1399;47.072;15.452;2023-07-30T06:43:36;20.60;90.90
2783;DHT22;1399;47.072;15.452;2023-07-30T06:46:02;20.60;90.90
2783;DHT22;1399;47.072;15.452;2023-07-30T06:48:27;20.60;90.90
2783;DHT22;1399;47.072;15.452;2023-07-30T06:50:53;20.60;90.90
2783;DHT22;1399;47.072;15.452;2023-07-30T06:53:19;20.60;90.90
2783;DHT22;1399;47.072;15.452;2023-07-30T06:55:45;20.60;90.80
2783;DHT22;1399;47.072;15.452;2023-07-30T06:58:11;20.70;90.90
2783;DHT22;1399;47.072;15.452;2023-07-30T07:00:36;20.70;91.30
2783;DHT22;1399;47.072;15.452;2023-07-30T07:03:02;20.70;90.90
2783;DHT22;1399;47.072;15.452;2023-07-30T07:05:29;20.70;90.90
2783;DHT22;1399;47.072;15.452;2023-07-30T07:07:55;20.80;90.90
2783;DHT22;1399;47.072;15.452;2023-07-30T07:10:20;20.80;90.80
2783;DHT22;1399;47.072;15.452;2023-07-30T07:12:46;20.90;90.80
2783;DHT22;1399;47.072;15.452;2023-07-30T07:15:12;21.10;90.70
2783;DHT22;1399;47.072;15.452;2023-07-30T07:17:38;21.30;90.40
2783;DHT22;1399;47.072;15.452;2023-07-30T07:20:05;21.40;90.00
2783;DHT22;1399;47.072;15.452;2023-07-30T07:22:32;21.60;89.60
2783;DHT22;1399;47.072;15.452;2023-07-30T07:24:58;21.70;89.10
2783;DHT22;1399;47.072;15.452;2023-07-30T07:27:24;21.80;88.90
2783;DHT22;1399;47.072;15.452;2023-07-30T07:29:50;21.90;88.80
2783;DHT22;1399;47.072;15.452;2023-07-30T07:32:17;22.00;88.40
2783;DHT22;1399;47.072;15.452;2023-07-30T07:34:48;22.10;88.00
2783;DHT22;1399;47.072;15.452;2023-07-30T07:37:15;22.30;87.30
2783;DHT22;1399;47.072;15.452;2023-07-30T07:39:42;22.40;86.00
2783;DHT22;1399;47.072;15.452;2023-07-30T07:42:09;22.50;85.00
2783;DHT22;1399;47.072;15.452;2023-07-30T07:44:34;22.50;84.30
2783;DHT22;1399;47.072;15.452;2023-07-30T07:47:00;22.60;84.10
2783;DHT22;1399;47.072;15.452;2023-07-30T07:49:26;22.60;83.60
2783;DHT22;1399;47.072;15.452;2023-07-30T07:51:51;22.70;83.40
2783;DHT22;1399;47.072;15.452;2023-07-30T07:54:17;22.80;83.10
2783;DHT22;1399;47.072;15.452;2023-07-30T07:56:42;22.90;82.70
2783;DHT22;1399;47.072;15.452;2023-07-30T07:59:08;23.10;82.30
2783;DHT22;1399;47.072;15.452;2023-07-30T08:01:34;23.20;82.00
2783;DHT22;1399;47.072;15.452;2023-07-30T08:03:59;23.30;81.60
2783;DHT22;1399;47.072;15.452;2023-07-30T08:06:25;23.30;81.30
2783;DHT22;1399;47.072;15.452;2023-07-30T08:08:51;23.40;81.10
2783;DHT22;1399;47.072;15.452;2023-07-30T08:11:17;23.40;81.10
2783;DHT22;1399;47.072;15.452;2023-07-30T08:13:42;23.40;81.20
2783;DHT22;1399;47.072;15.452;2023-07-30T08:16:08;23.40;81.10
2783;DHT22;1399;47.072;15.452;2023-07-30T08:18:34;23.40;81.20
2783;DHT22;1399;47.072;15.452;2023-07-30T08:21:00;23.30;81.40
2783;DHT22;1399;47.072;15.452;2023-07-30T08:23:27;23.30;81.50
2783;DHT22;1399;47.072;15.452;2023-07-30T08:25:52;23.30;81.70
2783;DHT22;1399;47.072;15.452;2023-07-30T08:28:18;23.40;81.80
2783;DHT22;1399;47.072;15.452;2023-07-30T08:30:44;23.40;81.60
2783;DHT22;1399;47.072;15.452;2023-07-30T08:33:10;23.50;81.50
2783;DHT22;1399;47.072;15.452;2023-07-30T08:35:36;23.50;81.20
2783;DHT22;1399;47.072;15.452;2023-07-30T08:38:02;23.60;81.00
2783;DHT22;1399;47.072;15.452;2023-07-30T08:40:27;23.70;80.80
2783;DHT22;1399;47.072;15.452;2023-07-30T08:42:54;23.70;80.50
2783;DHT22;1399;47.072;15.452;2023-07-30T08:45:20;23.70;80.40
2783;DHT22;1399;47.072;15.452;2023-07-30T08:47:46;23.70;80.40
2783;DHT22;1399;47.072;15.452;2023-07-30T08:50:13;23.70;80.30
2783;DHT22;1399;47.072;15.452;2023-07-30T08:52:40;23.80;80.30
2783;DHT22;1399;47.072;15.452;2023-07-30T08:55:06;23.80;81.00
2783;DHT22;1399;47.072;15.452;2023-07-30T08:57:33;23.80;80.00
2783;DHT22;1399;47.072;15.452;2023-07-30T09:00:08;23.80;80.00
2783;DHT22;1399;47.072;15.452;2023-07-30T09:02:48;23.70;80.00
2783;DHT22;1399;47.072;15.452;2023-07-30T09:05:14;23.70;80.20
2783;DHT22;1399;47.072;15.452;2023-07-30T09:07:40;23.60;80.30
2783;DHT22;1399;47.072;15.452;2023-07-30T09:10:07;23.60;80.50
2783;DHT22;1399;47.072;15.452;2023-07-30T09:12:34;23.60;80.70
2783;DHT22;1399;47.072;15.452;2023-07-30T09:15:00;23.70;80.60
2783;DHT22;1399;47.072;15.452;2023-07-30T09:17:27;23.70;80.30
2783;DHT22;1399;47.072;15.452;2023-07-30T09:19:53;23.80;79.90
2783;DHT22;1399;47.072;15.452;2023-07-30T09:22:29;23.90;79.70
2783;DHT22;1399;47.072;15.452;2023-07-30T09:24:56;23.90;79.30
2783;DHT22;1399;47.072;15.452;2023-07-30T09:27:25;24.00;79.10
2783;DHT22;1399;47.072;15.452;2023-07-30T09:30:02;24.00;79.30
2783;DHT22;1399;47.072;15.452;2023-07-30T09:32:32;24.10;78.60
2783;DHT22;1399;47.072;15.452;2023-07-30T09:35:08;24.20;78.30
2783;DHT22;1399;47.072;15.452;2023-07-30T09:37:39;24.20;78.00
2783;DHT22;1399;47.072;15.452;2023-07-30T09:40:07;24.20;78.00
2783;DHT22;1399;47.072;15.452;2023-07-30T09:42:33;24.10;78.00
2783;DHT22;1399;47.072;15.452;2023-07-30T09:45:00;24.10;78.20
2783;DHT22;1399;47.072;15.452;2023-07-30T09:47:27;24.00;78.20
2783;DHT22;1399;47.072;15.452;2023-07-30T09:49:53;23.90;78.20
2783;DHT22;1399;47.072;15.452;2023-07-30T09:52:20;23.90;78.20
2783;DHT22;1399;47.072;15.452;2023-07-30T09:54:49;23.90;78.40
2783;DHT22;1399;47.072;15.452;2023-07-30T09:57:17;23.80;78.50
2783;DHT22;1399;47.072;15.452;2023-07-30T09:59:43;23.80;78.60
2783;DHT22;1399;47.072;15.452;2023-07-30T10:02:10;23.80;78.70
2783;DHT22;1399;47.072;15.452;2023-07-30T10:04:42;23.70;78.60
2783;DHT22;1399;47.072;15.452;2023-07-30T10:07:16;23.70;78.70
2783;DHT22;1399;47.072;15.452;2023-07-30T10:09:44;23.70;78.80
2783;DHT22;1399;47.072;15.452;2023-07-30T10:12:15;23.70;79.00
2783;DHT22;1399;47.072;15.452;2023-07-30T10:14:41;23.70;78.90
2783;DHT22;1399;47.072;15.452;2023-07-30T10:17:10;23.70;78.70
2783;DHT22;1399;47.072;15.452;2023-07-30T10:19:36;23.70;78.70
2783;DHT22;1399;47.072;15.452;2023-07-30T10:27:26;23.60;78.20
2783;DHT22;1399;47.072;15.452;2023-07-30T10:30:11;23.70;77.90
2783;DHT22;1399;47.072;15.452;2023-07-30T10:38:28;23.90;77.70
2783;DHT22;1399;47.072;15.452;2023-07-30T10:41:12;23.90;77.20
2783;DHT22;1399;47.072;15.452;2023-07-30T10:43:40;24.00;76.90
2783;DHT22;1399;47.072;15.452;2023-07-30T10:46:07;24.10;76.30
2783;DHT22;1399;47.072;15.452;2023-07-30T10:48:38;24.10;75.90
2783;DHT22;1399;47.072;15.452;2023-07-30T10:51:06;24.20;75.70
2783;DHT22;1399;47.072;15.452;2023-07-30T10:53:32;24.20;75.50
2783;DHT22;1399;47.072;15.452;2023-07-30T10:56:00;24.20;75.60
2783;DHT22;1399;47.072;15.452;2023-07-30T10:58:33;24.20;75.20
2783;DHT22;1399;47.072;15.452;2023-07-30T11:01:01;24.20;75.30
2783;DHT22;1399;47.072;15.452;2023-07-30T11:03:27;24.20;75.10
2783;DHT22;1399;47.072;15.452;2023-07-30T11:05:56;24.20;75.00
2783;DHT22;1399;47.072;15.452;2023-07-30T11:10:58;24.20;75.00
2783;DHT22;1399;47.072;15.452;2023-07-30T11:13:24;24.20;75.00
2783;DHT22;1399;47.072;15.452;2023-07-30T11:15:50;24.20;75.00
2783;DHT22;1399;47.072;15.452;2023-07-30T11:18:16;24.20;75.00
2783;DHT22;1399;47.072;15.452;2023-07-30T11:20:42;24.10;74.80
2783;DHT22;1399;47.072;15.452;2023-07-30T11:23:23;24.10;74.70
2783;DHT22;1399;47.072;15.452;2023-07-30T11:25:49;24.10;74.70
2783;DHT22;1399;47.072;15.452;2023-07-30T11:28:38;24.10;74.90
2783;DHT22;1399;47.072;15.452;2023-07-30T11:33:38;24.10;74.70
2783;DHT22;1399;47.072;15.452;2023-07-30T11:36:04;24.10;74.60
2783;DHT22;1399;47.072;15.452;2023-07-30T11:38:32;24.10;74.60
2783;DHT22;1399;47.072;15.452;2023-07-30T11:40:58;24.10;74.50
2783;DHT22;1399;47.072;15.452;2023-07-30T11:43:24;24.10;74.50
2783;DHT22;1399;47.072;15.452;2023-07-30T11:46:09;24.10;74.50
2783;DHT22;1399;47.072;15.452;2023-07-30T11:48:34;24.10;74.40
2783;DHT22;1399;47.072;15.452;2023-07-30T11:51:01;24.10;74.30
2783;DHT22;1399;47.072;15.452;2023-07-30T11:53:46;24.10;74.10
2783;DHT22;1399;47.072;15.452;2023-07-30T11:58:46;24.20;73.90
2783;DHT22;1399;47.072;15.452;2023-07-30T12:01:17;24.20;73.90
2783;DHT22;1399;47.072;15.452;2023-07-30T12:03:43;24.20;73.90
2783;DHT22;1399;47.072;15.452;2023-07-30T12:06:12;24.20;73.90
2783;DHT22;1399;47.072;15.452;2023-07-30T12:08:38;24.20;73.70
2783;DHT22;1399;47.072;15.452;2023-07-30T12:11:06;24.20;73.70
2783;DHT22;1399;47.072;15.452;2023-07-30T12:13:32;24.20;73.50
2783;DHT22;1399;47.072;15.452;2023-07-30T12:15:59;24.20;73.50
2783;DHT22;1399;47.072;15.452;2023-07-30T12:18:25;24.30;73.40
2783;DHT22;1399;47.072;15.452;2023-07-30T12:20:52;24.30;73.30
2783;DHT22;1399;47.072;15.452;2023-07-30T12:23:19;24.30;73.10
2783;DHT22;1399;47.072;15.452;2023-07-30T12:25:46;24.30;72.90
2783;DHT22;1399;47.072;15.452;2023-07-30T12:28:13;24.40;72.80
2783;DHT22;1399;47.072;15.452;2023-07-30T12:30:39;24.40;72.60
2783;DHT22;1399;47.072;15.452;2023-07-30T12:33:05;24.50;72.60
2783;DHT22;1399;47.072;15.452;2023-07-30T12:35:32;24.50;72.60
2783;DHT22;1399;47.072;15.452;2023-07-30T12:37:59;24.50;72.30
2783;DHT22;1399;47.072;15.452;2023-07-30T12:40:25;24.50;72.30
2783;DHT22;1399;47.072;15.452;2023-07-30T12:42:51;24.60;72.60
2783;DHT22;1399;47.072;15.452;2023-07-30T12:45:16;24.50;72.50
2783;DHT22;1399;47.072;15.452;2023-07-30T12:47:42;24.60;72.10
2783;DHT22;1399;47.072;15.452;2023-07-30T12:50:08;24.60;72.10
2783;DHT22;1399;47.072;15.452;2023-07-30T12:52:34;24.60;71.50
2783;DHT22;1399;47.072;15.452;2023-07-30T12:55:01;24.70;71.40
2783;DHT22;1399;47.072;15.452;2023-07-30T12:57:27;24.60;71.20
2783;DHT22;1399;47.072;15.452;2023-07-30T12:59:53;24.60;71.20
2783;DHT22;1399;47.072;15.452;2023-07-30T13:02:19;24.60;71.40
2783;DHT22;1399;47.072;15.452;2023-07-30T13:04:45;24.60;71.00
2783;DHT22;1399;47.072;15.452;2023-07-30T13:07:11;24.60;71.00
2783;DHT22;1399;47.072;15.452;2023-07-30T13:09:37;24.60;71.10
2783;DHT22;1399;47.072;15.452;2023-07-30T13:12:04;24.60;70.90
2783;DHT22;1399;47.072;15.452;2023-07-30T13:14:30;24.60;71.00
2783;DHT22;1399;47.072;15.452;2023-07-30T13:16:56;24.60;71.00
2783;DHT22;1399;47.072;15.452;2023-07-30T13:19:22;24.70;71.00
2783;DHT22;1399;47.072;15.452;2023-07-30T13:21:48;24.70;71.20
2783;DHT22;1399;47.072;15.452;2023-07-30T13:24:14;24.70;70.90
2783;DHT22;1399;47.072;15.452;2023-07-30T13:26:40;24.70;71.00
2783;DHT22;1399;47.072;15.452;2023-07-30T13:29:06;24.70;71.00
2783;DHT22;1399;47.072;15.452;2023-07-30T13:31:32;24.70;70.20
2783;DHT22;1399;47.072;15.452;2023-07-30T13:33:58;24.70;69.90
2783;DHT22;1399;47.072;15.452;2023-07-30T13:36:24;24.80;70.00
2783;DHT22;1399;47.072;15.452;2023-07-30T13:38:50;24.80;70.10
2783;DHT22;1399;47.072;15.452;2023-07-30T13:41:16;24.80;70.00
2783;DHT22;1399;47.072;15.452;2023-07-30T13:43:42;24.80;70.10
2783;DHT22;1399;47.072;15.452;2023-07-30T13:46:08;24.80;70.10
2783;DHT22;1399;47.072;15.452;2023-07-30T13:48:34;24.80;70.00
2783;DHT22;1399;47.072;15.452;2023-07-30T13:51:00;24.90;70.10
2783;DHT22;1399;47.072;15.452;2023-07-30T13:53:26;24.90;70.10
2783;DHT22;1399;47.072;15.452;2023-07-30T13:55:52;24.90;69.60
2783;DHT22;1399;47.072;15.452;2023-07-30T13:58:18;24.90;69.20
2783;DHT22;1399;47.072;15.452;2023-07-30T14:00:45;24.90;69.20
2783;DHT22;1399;47.072;15.452;2023-07-30T14:03:11;25.00;69.30
2783;DHT22;1399;47.072;15.452;2023-07-30T14:05:38;25.00;69.40
2783;DHT22;1399;47.072;15.452;2023-07-30T14:08:04;25.00;69.50
2783;DHT22;1399;47.072;15.452;2023-07-30T14:10:30;25.00;69.30
2783;DHT22;1399;47.072;15.452;2023-07-30T14:12:56;24.90;69.40
2783;DHT22;1399;47.072;15.452;2023-07-30T14:15:22;24.90;69.60
2783;DHT22;1399;47.072;15.452;2023-07-30T14:17:48;24.90;69.40
2783;DHT22;1399;47.072;15.452;2023-07-30T14:20:14;24.90;69.40
2783;DHT22;1399;47.072;15.452;2023-07-30T14:22:40;24.90;69.50
2783;DHT22;1399;47.072;15.452;2023-07-30T14:25:06;24.90;69.30
2783;DHT22;1399;47.072;15.452;2023-07-30T14:27:32;24.90;69.20
2783;DHT22;1399;47.072;15.452;2023-07-30T14:29:58;24.90;69.30
2783;DHT22;1399;47.072;15.452;2023-07-30T14:32:24;25.00;69.40
2783;DHT22;1399;47.072;15.452;2023-07-30T14:34:49;25.00;69.20
2783;DHT22;1399;47.072;15.452;2023-07-30T14:37:15;25.10;68.70
2783;DHT22;1399;47.072;15.452;2023-07-30T14:39:41;25.10;68.40
2783;DHT22;1399;47.072;15.452;2023-07-30T14:42:08;25.10;68.10
2783;DHT22;1399;47.072;15.452;2023-07-30T14:44:34;25.20;67.90
2783;DHT22;1399;47.072;15.452;2023-07-30T14:47:00;25.20;67.90
2783;DHT22;1399;47.072;15.452;2023-07-30T14:49:29;25.20;67.70
2783;DHT22;1399;47.072;15.452;2023-07-30T14:51:55;25.20;67.60
2783;DHT22;1399;47.072;15.452;2023-07-30T14:54:21;25.20;67.60
2783;DHT22;1399;47.072;15.452;2023-07-30T14:56:46;25.20;67.70
2783;DHT22;1399;47.072;15.452;2023-07-30T14:59:12;25.10;67.80
2783;DHT22;1399;47.072;15.452;2023-07-30T15:01:38;25.00;67.90
2783;DHT22;1399;47.072;15.452;2023-07-30T15:04:04;25.00;68.10
2783;DHT22;1399;47.072;15.452;2023-07-30T15:06:30;24.90;68.10
2783;DHT22;1399;47.072;15.452;2023-07-30T15:08:56;24.90;68.30
2783;DHT22;1399;47.072;15.452;2023-07-30T15:11:22;24.80;68.30
2783;DHT22;1399;47.072;15.452;2023-07-30T15:13:49;24.80;68.30
2783;DHT22;1399;47.072;15.452;2023-07-30T15:16:14;24.70;68.20
2783;DHT22;1399;47.072;15.452;2023-07-30T15:18:42;24.70;68.20
2783;DHT22;1399;47.072;15.452;2023-07-30T15:21:12;24.70;68.20
2783;DHT22;1399;47.072;15.452;2023-07-30T15:23:38;24.70;68.20
2783;DHT22;1399;47.072;15.452;2023-07-30T15:26:04;24.70;68.30
2783;DHT22;1399;47.072;15.452;2023-07-30T15:28:30;24.70;68.40
2783;DHT22;1399;47.072;15.452;2023-07-30T15:30:56;24.60;68.30
2783;DHT22;1399;47.072;15.452;2023-07-30T15:33:23;24.60;68.40
2783;DHT22;1399;47.072;15.452;2023-07-30T15:35:49;24.60;68.50
2783;DHT22;1399;47.072;15.452;2023-07-30T15:38:15;24.60;68.60
2783;DHT22;1399;47.072;15.452;2023-07-30T15:40:41;24.70;68.70
2783;DHT22;1399;47.072;15.452;2023-07-30T15:43:08;24.70;68.70
2783;DHT22;1399;47.072;15.452;2023-07-30T15:45:34;24.70;68.60
2783;DHT22;1399;47.072;15.452;2023-07-30T15:48:06;24.70;68.60
2783;DHT22;1399;47.072;15.452;2023-07-30T15:50:35;24.80;68.50
2783;DHT22;1399;47.072;15.452;2023-07-30T15:53:02;24.80;68.40
2783;DHT22;1399;47.072;15.452;2023-07-30T15:55:28;24.80;68.30
2783;DHT22;1399;47.072;15.452;2023-07-30T15:57:54;24.80;69.10
2783;DHT22;1399;47.072;15.452;2023-07-30T16:00:20;24.80;68.20